createdAt,value
2016-12-18T00:00:23.138Z,995.52
2016-12-18T00:01:31.837Z,995.52
2016-12-18T00:02:40.524Z,995.53
2016-12-18T00:03:49.203Z,995.5
2016-12-18T00:04:57.888Z,995.55
2016-12-18T00:06:06.577Z,995.55
2016-12-18T00:07:15.262Z,995.52
2016-12-18T00:08:23.944Z,995.6
2016-12-18T00:09:32.631Z,995.6
2016-12-18T00:10:41.316Z,995.61
2016-12-18T00:11:50.023Z,995.61
2016-12-18T00:12:58.705Z,995.65
2016-12-18T00:14:07.390Z,995.68
2016-12-18T00:15:16.074Z,995.69
2016-12-18T00:16:24.755Z,995.64
2016-12-18T00:17:33.438Z,995.61
2016-12-18T00:18:42.127Z,995.59
2016-12-18T00:19:50.813Z,995.59
2016-12-18T00:20:59.497Z,995.56
2016-12-18T00:22:08.178Z,995.59
2016-12-18T00:23:17.184Z,995.57
2016-12-18T00:24:26.182Z,995.56
2016-12-18T00:25:34.862Z,995.58
2016-12-18T00:26:43.542Z,995.59
2016-12-18T00:27:52.224Z,995.61
2016-12-18T00:29:00.947Z,995.65
2016-12-18T00:30:09.625Z,995.71
2016-12-18T00:31:18.303Z,995.76
2016-12-18T00:32:27.040Z,995.79
2016-12-18T00:33:35.724Z,995.79
2016-12-18T00:34:44.407Z,995.8
2016-12-18T00:35:53.091Z,995.76
2016-12-18T00:37:01.775Z,995.73
2016-12-18T00:38:10.460Z,995.69
2016-12-18T00:39:19.139Z,995.65
2016-12-18T00:40:27.820Z,995.72
2016-12-18T00:41:36.533Z,995.72
2016-12-18T00:42:45.216Z,995.74
2016-12-18T00:43:53.896Z,995.73
2016-12-18T00:45:02.577Z,995.75
2016-12-18T00:46:11.261Z,995.75
2016-12-18T00:47:19.947Z,995.79
2016-12-18T00:48:28.629Z,995.8
2016-12-18T00:49:37.347Z,995.86
2016-12-18T00:50:46.352Z,995.88
2016-12-18T00:51:55.029Z,995.93
2016-12-18T00:53:03.714Z,995.92
2016-12-18T00:54:12.408Z,996.04
2016-12-18T00:55:21.090Z,996.04
2016-12-18T00:56:29.775Z,996.03
2016-12-18T00:57:38.460Z,996.06
2016-12-18T00:58:47.140Z,996.1
2016-12-18T00:59:55.826Z,996.11
2016-12-18T01:01:04.868Z,996.07
2016-12-18T01:02:13.548Z,996.05
2016-12-18T01:03:22.230Z,996.07
2016-12-18T01:04:30.915Z,996.05
2016-12-18T01:05:39.600Z,996.12
2016-12-18T01:06:48.297Z,996.09
2016-12-18T01:07:56.980Z,996.12
2016-12-18T01:09:05.665Z,996.1
2016-12-18T01:10:14.343Z,996.09
2016-12-18T01:11:23.078Z,996.1
2016-12-18T01:12:31.816Z,996.1
2016-12-18T01:13:40.513Z,996.13
2016-12-18T01:14:49.196Z,996.13
2016-12-18T01:15:57.881Z,996.11
2016-12-18T01:17:06.590Z,996.18
2016-12-18T01:18:15.588Z,996.16
2016-12-18T01:19:24.268Z,996.14
2016-12-18T01:20:32.956Z,996.15
2016-12-18T01:21:41.638Z,996.21
2016-12-18T01:22:50.320Z,996.2
2016-12-18T01:23:59.002Z,996.25
2016-12-18T01:25:07.686Z,996.29
2016-12-18T01:26:16.368Z,996.31
2016-12-18T01:27:25.049Z,996.33
2016-12-18T01:28:33.730Z,996.33
2016-12-18T01:29:42.412Z,996.36
2016-12-18T01:30:51.097Z,996.36
2016-12-18T01:32:00.122Z,996.45
2016-12-18T01:33:08.803Z,996.47
2016-12-18T01:34:17.485Z,996.55
2016-12-18T01:35:26.172Z,996.57
2016-12-18T01:36:34.862Z,996.61
2016-12-18T01:37:43.539Z,996.62
2016-12-18T01:38:52.218Z,996.63
2016-12-18T01:40:00.906Z,996.63
2016-12-18T01:41:09.593Z,996.6
2016-12-18T01:42:18.275Z,996.63
2016-12-18T01:43:26.961Z,996.64
2016-12-18T01:44:35.640Z,996.62
2016-12-18T01:45:44.331Z,996.57
2016-12-18T01:46:53.013Z,996.56
2016-12-18T01:48:01.701Z,996.57
2016-12-18T01:49:10.384Z,996.6
2016-12-18T01:50:19.069Z,996.56
2016-12-18T01:51:27.757Z,996.59
2016-12-18T01:52:36.439Z,996.64
2016-12-18T01:53:45.122Z,996.66
2016-12-18T01:54:53.802Z,996.69
2016-12-18T01:56:02.488Z,996.69
2016-12-18T01:57:11.174Z,996.71
2016-12-18T01:58:19.855Z,996.71
2016-12-18T01:59:28.542Z,996.75
2016-12-18T02:00:37.221Z,996.79
2016-12-18T02:01:45.902Z,996.78
2016-12-18T02:02:54.587Z,996.74
2016-12-18T02:04:03.265Z,996.69
2016-12-18T02:05:11.952Z,996.68
2016-12-18T02:06:20.631Z,996.7
2016-12-18T02:07:29.312Z,996.7
2016-12-18T02:08:38.102Z,996.68
2016-12-18T02:09:46.781Z,996.67
2016-12-18T02:10:55.464Z,996.68
2016-12-18T02:12:04.144Z,996.62
2016-12-18T02:13:12.827Z,996.64
2016-12-18T02:14:21.511Z,996.6
2016-12-18T02:15:30.189Z,996.61
2016-12-18T02:16:38.878Z,996.62
2016-12-18T02:17:47.556Z,996.69
2016-12-18T02:18:56.245Z,996.7
2016-12-18T02:20:04.925Z,996.78
2016-12-18T02:21:13.607Z,996.83
2016-12-18T02:22:22.287Z,996.82
2016-12-18T02:23:30.967Z,996.82
2016-12-18T02:24:39.653Z,996.8
2016-12-18T02:25:48.336Z,996.82
2016-12-18T02:26:57.026Z,996.77
2016-12-18T02:28:05.710Z,996.81
2016-12-18T02:29:14.389Z,996.79
2016-12-18T02:30:23.069Z,996.79
2016-12-18T02:31:31.785Z,996.8
2016-12-18T02:32:40.472Z,996.83
2016-12-18T02:33:49.151Z,996.81
2016-12-18T02:34:57.833Z,996.86
2016-12-18T02:36:06.523Z,996.88
2016-12-18T02:37:15.200Z,996.93
2016-12-18T02:38:23.894Z,996.98
2016-12-18T02:39:32.580Z,996.98
2016-12-18T02:40:41.266Z,997
2016-12-18T02:41:49.950Z,997.01
2016-12-18T02:42:58.636Z,997.01
2016-12-18T02:44:07.318Z,996.95
2016-12-18T02:45:16.001Z,996.95
2016-12-18T02:46:24.688Z,996.84
2016-12-18T02:47:33.380Z,996.84
2016-12-18T02:48:42.064Z,996.83
2016-12-18T02:49:50.741Z,996.81
2016-12-18T02:50:59.426Z,996.84
2016-12-18T02:52:08.110Z,996.85
2016-12-18T02:53:16.795Z,996.86
2016-12-18T02:54:25.475Z,996.85
2016-12-18T02:55:34.188Z,996.82
2016-12-18T02:56:42.870Z,996.85
2016-12-18T02:57:51.549Z,996.89
2016-12-18T02:59:00.229Z,996.91
2016-12-18T03:00:08.912Z,996.88
2016-12-18T03:01:17.592Z,996.87
2016-12-18T03:02:26.293Z,996.91
2016-12-18T03:03:34.976Z,996.93
2016-12-18T03:04:43.654Z,996.93
2016-12-18T03:05:52.489Z,996.94
2016-12-18T03:07:01.172Z,996.89
2016-12-18T03:08:09.856Z,996.89
2016-12-18T03:09:18.539Z,996.86
2016-12-18T03:10:27.253Z,996.85
2016-12-18T03:11:36.237Z,996.85
2016-12-18T03:12:44.921Z,996.89
2016-12-18T03:13:53.615Z,996.91
2016-12-18T03:15:02.298Z,996.9
2016-12-18T03:16:10.985Z,996.94
2016-12-18T03:17:19.742Z,996.95
2016-12-18T03:18:28.425Z,996.96
2016-12-18T03:19:37.106Z,996.94
2016-12-18T03:20:45.791Z,996.91
2016-12-18T03:21:54.475Z,996.88
2016-12-18T03:23:03.216Z,996.86
2016-12-18T03:24:11.899Z,996.83
2016-12-18T03:25:20.622Z,996.87
2016-12-18T03:26:29.342Z,996.92
2016-12-18T03:27:38.025Z,996.9
2016-12-18T03:28:46.705Z,996.85
2016-12-18T03:29:55.390Z,996.86
2016-12-18T03:31:04.074Z,996.85
2016-12-18T03:32:12.760Z,996.84
2016-12-18T03:33:21.442Z,996.87
2016-12-18T03:34:30.163Z,996.85
2016-12-18T03:35:39.161Z,996.87
2016-12-18T03:36:47.845Z,996.8
2016-12-18T03:37:56.528Z,996.74
2016-12-18T03:39:05.211Z,996.73
2016-12-18T03:40:13.900Z,996.7
2016-12-18T03:41:22.587Z,996.77
2016-12-18T03:42:31.280Z,996.79
2016-12-18T03:43:39.963Z,996.69
2016-12-18T03:44:48.647Z,996.68
2016-12-18T03:45:57.326Z,996.64
2016-12-18T03:47:06.011Z,996.67
2016-12-18T03:48:14.691Z,996.7
2016-12-18T03:49:23.373Z,996.74
2016-12-18T03:50:32.052Z,996.75
2016-12-18T03:51:40.763Z,996.67
2016-12-18T03:52:49.448Z,996.68
2016-12-18T03:53:58.133Z,996.6
2016-12-18T03:55:06.816Z,996.66
2016-12-18T03:56:15.505Z,996.7
2016-12-18T03:57:24.189Z,996.75
2016-12-18T03:58:32.874Z,996.77
2016-12-18T03:59:41.561Z,996.79
2016-12-18T04:00:50.246Z,996.83
2016-12-18T04:01:58.942Z,996.81
2016-12-18T04:03:07.624Z,996.84
2016-12-18T04:04:16.303Z,996.84
2016-12-18T04:05:25.019Z,996.88
2016-12-18T04:06:33.702Z,996.84
2016-12-18T04:07:42.386Z,996.86
2016-12-18T04:08:51.068Z,996.88
2016-12-18T04:09:59.747Z,996.84
2016-12-18T04:11:08.434Z,996.83
2016-12-18T04:12:17.120Z,996.88
2016-12-18T04:13:25.809Z,996.86
2016-12-18T04:14:34.488Z,996.94
2016-12-18T04:15:43.216Z,996.98
2016-12-18T04:16:51.897Z,997.01
2016-12-18T04:18:00.586Z,997.05
2016-12-18T04:19:09.269Z,997.03
2016-12-18T04:20:17.977Z,997.01
2016-12-18T04:21:26.664Z,997.01
2016-12-18T04:22:35.345Z,996.98
2016-12-18T04:23:44.056Z,996.99
2016-12-18T04:24:52.744Z,996.93
2016-12-18T04:26:01.429Z,996.96
2016-12-18T04:27:10.115Z,996.98
2016-12-18T04:28:18.799Z,997.01
2016-12-18T04:29:27.515Z,996.98
2016-12-18T04:30:36.198Z,996.94
2016-12-18T04:31:44.883Z,996.95
2016-12-18T04:32:53.571Z,996.94
2016-12-18T04:34:02.252Z,997.01
2016-12-18T04:35:10.934Z,996.98
2016-12-18T04:36:19.641Z,997.01
2016-12-18T04:37:28.326Z,996.98
2016-12-18T04:38:37.011Z,996.98
2016-12-18T04:39:45.699Z,997.01
2016-12-18T04:40:54.383Z,997.07
2016-12-18T04:42:03.066Z,997.08
2016-12-18T04:43:11.748Z,997.15
2016-12-18T04:44:20.431Z,997.19
2016-12-18T04:45:29.118Z,997.13
2016-12-18T04:46:37.801Z,997.15
2016-12-18T04:47:46.482Z,997.15
2016-12-18T04:48:55.166Z,997.15
2016-12-18T04:50:03.857Z,997.14
2016-12-18T04:51:12.540Z,997.2
2016-12-18T04:52:21.220Z,997.17
2016-12-18T04:53:29.905Z,997.19
2016-12-18T04:54:38.587Z,997.16
2016-12-18T04:55:47.269Z,997.15
2016-12-18T04:56:55.950Z,997.1
2016-12-18T04:58:04.682Z,997.08
2016-12-18T04:59:13.362Z,997.11
2016-12-18T05:00:22.039Z,997.11
2016-12-18T05:01:30.728Z,997.1
2016-12-18T05:02:39.413Z,997.13
2016-12-18T05:03:48.099Z,997.19
2016-12-18T05:04:56.785Z,997.17
2016-12-18T05:06:05.779Z,997.17
2016-12-18T05:07:14.457Z,997.21
2016-12-18T05:08:23.143Z,997.19
2016-12-18T05:09:31.824Z,997.22
2016-12-18T05:10:40.507Z,997.21
2016-12-18T05:11:49.194Z,997.21
2016-12-18T05:12:57.879Z,997.2
2016-12-18T05:14:06.561Z,997.19
2016-12-18T05:15:15.260Z,997.23
2016-12-18T05:16:23.961Z,997.23
2016-12-18T05:17:32.640Z,997.24
2016-12-18T05:18:41.327Z,997.23
2016-12-18T05:19:50.336Z,997.2
2016-12-18T05:20:59.346Z,997.21
2016-12-18T05:22:08.037Z,997.19
2016-12-18T05:23:16.726Z,997.22
2016-12-18T05:24:25.415Z,997.26
2016-12-18T05:25:34.094Z,997.28
2016-12-18T05:26:42.804Z,997.28
2016-12-18T05:27:51.486Z,997.27
2016-12-18T05:29:00.179Z,997.26
2016-12-18T05:30:08.860Z,997.15
2016-12-18T05:31:17.541Z,997.1
2016-12-18T05:32:26.225Z,997.01
2016-12-18T05:33:34.911Z,996.9
2016-12-18T05:34:43.595Z,996.9
2016-12-18T05:35:52.281Z,996.91
2016-12-18T05:37:00.995Z,996.88
2016-12-18T05:38:09.699Z,996.9
2016-12-18T05:39:18.382Z,996.9
2016-12-18T05:40:27.063Z,996.91
2016-12-18T05:41:35.745Z,996.9
2016-12-18T05:42:44.423Z,996.93
2016-12-18T05:43:53.101Z,996.95
2016-12-18T05:45:01.785Z,996.9
2016-12-18T05:46:10.472Z,996.89
2016-12-18T05:47:19.158Z,996.82
2016-12-18T05:48:27.842Z,996.86
2016-12-18T05:49:36.532Z,996.88
2016-12-18T05:50:45.538Z,996.99
2016-12-18T05:51:54.222Z,997.05
2016-12-18T05:53:02.906Z,997.04
2016-12-18T05:54:11.593Z,997.11
2016-12-18T05:55:20.272Z,997.11
2016-12-18T05:56:28.957Z,997.1
2016-12-18T05:57:37.640Z,997.11
2016-12-18T05:58:46.320Z,997.16
2016-12-18T05:59:55.002Z,997.19
2016-12-18T06:01:03.687Z,997.24
2016-12-18T06:02:12.375Z,997.24
2016-12-18T06:03:21.057Z,997.24
2016-12-18T06:04:29.738Z,997.2
2016-12-18T06:05:38.423Z,997.18
2016-12-18T06:06:47.110Z,997.19
2016-12-18T06:07:55.832Z,997.29
2016-12-18T06:09:04.838Z,997.31
2016-12-18T06:10:13.521Z,997.31
2016-12-18T06:11:22.213Z,997.33
2016-12-18T06:12:30.897Z,997.31
2016-12-18T06:13:39.586Z,997.28
2016-12-18T06:14:48.267Z,997.26
2016-12-18T06:15:56.959Z,997.26
2016-12-18T06:17:05.645Z,997.24
2016-12-18T06:18:14.358Z,997.24
2016-12-18T06:19:23.042Z,997.21
2016-12-18T06:20:31.724Z,997.23
2016-12-18T06:21:40.407Z,997.28
2016-12-18T06:22:49.101Z,997.26
2016-12-18T06:23:57.817Z,997.31
2016-12-18T06:25:06.505Z,997.31
2016-12-18T06:26:15.188Z,997.33
2016-12-18T06:27:23.876Z,997.3
2016-12-18T06:28:32.558Z,997.3
2016-12-18T06:29:41.243Z,997.29
2016-12-18T06:30:49.981Z,997.34
2016-12-18T06:31:58.667Z,997.38
2016-12-18T06:33:07.355Z,997.51
2016-12-18T06:34:16.036Z,997.47
2016-12-18T06:35:24.720Z,997.45
2016-12-18T06:36:33.406Z,997.45
2016-12-18T06:37:42.404Z,997.43
2016-12-18T06:38:51.088Z,997.42
2016-12-18T06:39:59.776Z,997.45
2016-12-18T06:41:08.461Z,997.4
2016-12-18T06:42:17.458Z,997.4
2016-12-18T06:43:26.142Z,997.46
2016-12-18T06:44:34.824Z,997.49
2016-12-18T06:45:43.514Z,997.55
2016-12-18T06:46:52.200Z,997.6
2016-12-18T06:48:00.906Z,997.57
2016-12-18T06:49:09.638Z,997.5
2016-12-18T06:50:18.327Z,997.4
2016-12-18T06:51:27.017Z,997.34
2016-12-18T06:52:35.696Z,997.3
2016-12-18T06:53:44.376Z,997.29
2016-12-18T06:54:53.058Z,997.33
2016-12-18T06:56:01.751Z,997.36
2016-12-18T06:57:10.437Z,997.32
2016-12-18T06:58:19.127Z,997.31
2016-12-18T06:59:27.810Z,997.33
2016-12-18T07:00:36.493Z,997.34
2016-12-18T07:01:45.174Z,997.36
2016-12-18T07:02:53.893Z,997.36
2016-12-18T07:04:02.579Z,997.4
2016-12-18T07:05:11.263Z,997.42
2016-12-18T07:06:19.947Z,997.47
2016-12-18T07:07:28.667Z,997.44
2016-12-18T07:08:37.354Z,997.43
2016-12-18T07:09:46.057Z,997.44
2016-12-18T07:10:54.761Z,997.42
2016-12-18T07:12:03.445Z,997.31
2016-12-18T07:13:12.129Z,997.27
2016-12-18T07:14:20.815Z,997.31
2016-12-18T07:15:29.500Z,997.36
2016-12-18T07:16:38.180Z,997.44
2016-12-18T07:17:46.864Z,997.47
2016-12-18T07:18:55.549Z,997.44
2016-12-18T07:20:04.235Z,997.43
2016-12-18T07:21:12.919Z,997.44
2016-12-18T07:22:21.609Z,997.39
2016-12-18T07:23:30.294Z,997.33
2016-12-18T07:24:38.980Z,997.29
2016-12-18T07:25:47.659Z,997.3
2016-12-18T07:26:56.344Z,997.25
2016-12-18T07:28:05.028Z,997.24
2016-12-18T07:29:13.713Z,997.21
2016-12-18T07:30:22.399Z,997.19
2016-12-18T07:31:31.081Z,997.19
2016-12-18T07:32:40.079Z,997.23
2016-12-18T07:33:48.763Z,997.21
2016-12-18T07:34:57.448Z,997.23
2016-12-18T07:36:06.135Z,997.23
2016-12-18T07:37:14.820Z,997.2
2016-12-18T07:38:23.503Z,997.23
2016-12-18T07:39:32.184Z,997.23
2016-12-18T07:40:40.865Z,997.23
2016-12-18T07:41:49.552Z,997.28
2016-12-18T07:42:58.233Z,997.29
2016-12-18T07:44:06.918Z,997.31
2016-12-18T07:45:15.603Z,997.27
2016-12-18T07:46:24.289Z,997.27
2016-12-18T07:47:32.984Z,997.26
2016-12-18T07:48:41.672Z,997.23
2016-12-18T07:49:50.358Z,997.32
2016-12-18T07:50:59.038Z,997.3
2016-12-18T07:52:07.725Z,997.33
2016-12-18T07:53:16.407Z,997.33
2016-12-18T07:54:25.092Z,997.31
2016-12-18T07:55:33.815Z,997.29
2016-12-18T07:56:42.495Z,997.23
2016-12-18T07:57:51.180Z,997.24
2016-12-18T07:58:59.863Z,997.23
2016-12-18T08:00:08.543Z,997.22
2016-12-18T08:01:17.227Z,997.22
2016-12-18T08:02:25.912Z,997.19
2016-12-18T08:03:34.592Z,997.18
2016-12-18T08:04:43.271Z,997.18
2016-12-18T08:05:51.956Z,997.15
2016-12-18T08:07:00.639Z,997.13
2016-12-18T08:08:09.326Z,997.16
2016-12-18T08:09:18.009Z,997.24
2016-12-18T08:10:26.701Z,997.23
2016-12-18T08:11:35.384Z,997.17
2016-12-18T08:12:44.067Z,997.17
2016-12-18T08:13:52.757Z,997.16
2016-12-18T08:15:01.442Z,997.09
2016-12-18T08:16:10.129Z,997.08
2016-12-18T08:17:18.870Z,997.06
2016-12-18T08:18:27.595Z,997.06
2016-12-18T08:19:36.280Z,997.11
2016-12-18T08:20:44.965Z,997.06
2016-12-18T08:21:53.656Z,997.07
2016-12-18T08:23:02.346Z,997.07
2016-12-18T08:24:11.028Z,997.1
2016-12-18T08:25:19.712Z,997.19
2016-12-18T08:26:28.403Z,997.24
2016-12-18T08:27:37.088Z,997.2
2016-12-18T08:28:45.768Z,997.16
2016-12-18T08:29:54.489Z,997.12
2016-12-18T08:31:03.176Z,997.07
2016-12-18T08:32:11.860Z,997.09
2016-12-18T08:33:20.543Z,997.1
2016-12-18T08:34:29.226Z,997.08
2016-12-18T08:35:37.912Z,997.11
2016-12-18T08:36:46.602Z,997.12
2016-12-18T08:37:55.289Z,997.13
2016-12-18T08:39:03.986Z,997.16
2016-12-18T08:40:12.699Z,997.14
2016-12-18T08:41:21.386Z,997.14
2016-12-18T08:42:30.070Z,997.17
2016-12-18T08:43:38.754Z,997.13
2016-12-18T08:44:47.438Z,997.08
2016-12-18T08:45:56.122Z,997.1
2016-12-18T08:47:04.810Z,997.21
2016-12-18T08:48:13.493Z,997.33
2016-12-18T08:49:22.185Z,997.45
2016-12-18T08:50:31.182Z,997.46
2016-12-18T08:51:39.866Z,997.4
2016-12-18T08:52:48.547Z,997.38
2016-12-18T08:53:57.553Z,997.46
2016-12-18T08:55:06.239Z,997.55
2016-12-18T08:56:14.925Z,997.56
2016-12-18T08:57:23.637Z,997.54
2016-12-18T08:58:32.319Z,997.54
2016-12-18T08:59:41.002Z,997.56
2016-12-18T09:00:49.691Z,997.57
2016-12-18T09:01:58.377Z,997.57
2016-12-18T09:03:07.060Z,997.61
2016-12-18T09:04:15.744Z,997.58
2016-12-18T09:05:24.433Z,997.57
2016-12-18T09:06:33.116Z,997.54
2016-12-18T09:07:41.832Z,997.58
2016-12-18T09:08:50.519Z,997.69
2016-12-18T09:09:59.202Z,997.69
2016-12-18T09:11:07.889Z,997.75
2016-12-18T09:12:16.574Z,997.73
2016-12-18T09:13:25.266Z,997.8
2016-12-18T09:14:33.947Z,997.84
2016-12-18T09:15:42.662Z,997.79
2016-12-18T09:16:51.352Z,997.82
2016-12-18T09:18:00.032Z,997.78
2016-12-18T09:19:08.720Z,997.83
2016-12-18T09:20:17.406Z,997.8
2016-12-18T09:21:26.114Z,997.83
2016-12-18T09:22:34.796Z,997.86
2016-12-18T09:23:43.476Z,997.79
2016-12-18T09:24:52.165Z,997.82
2016-12-18T09:26:00.853Z,997.84
2016-12-18T09:27:09.541Z,997.78
2016-12-18T09:28:18.230Z,997.76
2016-12-18T09:29:26.923Z,997.73
2016-12-18T09:30:35.610Z,997.75
2016-12-18T09:31:44.298Z,997.77
2016-12-18T09:32:52.993Z,997.77
2016-12-18T09:34:01.710Z,997.72
2016-12-18T09:35:10.396Z,997.7
2016-12-18T09:36:19.112Z,997.66
2016-12-18T09:37:27.801Z,997.71
2016-12-18T09:38:36.485Z,997.72
2016-12-18T09:39:45.176Z,997.78
2016-12-18T09:40:53.863Z,997.77
2016-12-18T09:42:02.548Z,997.75
2016-12-18T09:43:11.240Z,997.7
2016-12-18T09:44:19.923Z,997.71
2016-12-18T09:45:28.608Z,997.64
2016-12-18T09:46:37.323Z,997.6
2016-12-18T09:47:46.009Z,997.65
2016-12-18T09:48:54.727Z,997.58
2016-12-18T09:50:03.414Z,997.58
2016-12-18T09:51:12.106Z,997.59
2016-12-18T09:52:20.791Z,997.57
2016-12-18T09:53:29.485Z,997.53
2016-12-18T09:54:38.167Z,997.5
2016-12-18T09:55:46.853Z,997.52
2016-12-18T09:56:55.540Z,997.52
2016-12-18T09:58:04.228Z,997.5
2016-12-18T09:59:12.917Z,997.49
2016-12-18T10:00:21.643Z,997.51
2016-12-18T10:01:30.329Z,997.53
2016-12-18T10:02:39.011Z,997.54
2016-12-18T10:03:47.696Z,997.55
2016-12-18T10:04:56.383Z,997.56
2016-12-18T10:06:05.066Z,997.6
2016-12-18T10:07:13.755Z,997.58
2016-12-18T10:08:22.474Z,997.62
2016-12-18T10:09:31.167Z,997.61
2016-12-18T10:10:39.860Z,997.62
2016-12-18T10:11:48.555Z,997.64
2016-12-18T10:12:57.240Z,997.63
2016-12-18T10:14:05.932Z,997.62
2016-12-18T10:15:14.616Z,997.62
2016-12-18T10:16:23.305Z,997.56
2016-12-18T10:17:31.992Z,997.52
2016-12-18T10:18:40.683Z,997.49
2016-12-18T10:19:49.367Z,997.46
2016-12-18T10:20:58.054Z,997.51
2016-12-18T10:22:06.744Z,997.51
2016-12-18T10:23:15.436Z,997.49
2016-12-18T10:24:24.127Z,997.45
2016-12-18T10:25:33.146Z,997.43
2016-12-18T10:26:41.827Z,997.45
2016-12-18T10:27:50.515Z,997.33
2016-12-18T10:28:59.204Z,997.23
2016-12-18T10:30:07.889Z,997.2
2016-12-18T10:31:16.587Z,997.15
2016-12-18T10:32:25.270Z,997.05
2016-12-18T10:33:33.952Z,997.07
2016-12-18T10:34:42.639Z,997.13
2016-12-18T10:35:51.330Z,997.16
2016-12-18T10:37:00.017Z,997.2
2016-12-18T10:38:08.710Z,997.21
2016-12-18T10:39:17.399Z,997.26
2016-12-18T10:40:26.090Z,997.24
2016-12-18T10:41:34.775Z,997.28
2016-12-18T10:42:43.461Z,997.23
2016-12-18T10:43:52.183Z,997.16
2016-12-18T10:45:00.872Z,997.15
2016-12-18T10:46:09.560Z,997.09
2016-12-18T10:47:18.245Z,997.08
2016-12-18T10:48:26.931Z,997.08
2016-12-18T10:49:35.618Z,997.06
2016-12-18T10:50:44.304Z,997.04
2016-12-18T10:51:53.024Z,997
2016-12-18T10:53:01.710Z,996.98
2016-12-18T10:54:10.394Z,997.01
2016-12-18T10:55:19.086Z,996.98
2016-12-18T10:56:27.776Z,996.9
2016-12-18T10:57:36.457Z,996.92
2016-12-18T10:58:45.143Z,996.93
2016-12-18T10:59:54.159Z,996.85
2016-12-18T11:01:02.945Z,996.73
2016-12-18T11:02:11.634Z,996.76
2016-12-18T11:03:20.318Z,996.7
2016-12-18T11:04:29.009Z,996.76
2016-12-18T11:05:37.694Z,996.77
2016-12-18T11:06:46.378Z,996.87
2016-12-18T11:07:55.065Z,996.87
2016-12-18T11:09:03.751Z,996.85
2016-12-18T11:10:12.437Z,996.83
2016-12-18T11:11:21.123Z,996.86
2016-12-18T11:12:29.807Z,996.86
2016-12-18T11:13:38.500Z,996.86
2016-12-18T11:14:47.195Z,996.83
2016-12-18T11:15:55.886Z,996.86
2016-12-18T11:17:04.577Z,996.81
2016-12-18T11:18:13.262Z,996.76
2016-12-18T11:19:21.949Z,996.77
2016-12-18T11:20:30.946Z,996.78
2016-12-18T11:21:39.638Z,996.77
2016-12-18T11:22:48.326Z,996.76
2016-12-18T11:23:57.012Z,996.74
2016-12-18T11:25:05.724Z,996.76
2016-12-18T11:26:14.438Z,996.8
2016-12-18T11:27:23.129Z,996.85
2016-12-18T11:28:31.833Z,996.9
2016-12-18T11:29:40.522Z,996.9
2016-12-18T11:30:49.224Z,996.92
2016-12-18T11:31:57.913Z,996.95
2016-12-18T11:33:06.600Z,996.99
2016-12-18T11:34:15.284Z,996.95
2016-12-18T11:35:23.967Z,996.95
2016-12-18T11:36:32.652Z,996.91
2016-12-18T11:37:41.341Z,996.93
2016-12-18T11:38:50.035Z,996.88
2016-12-18T11:39:58.720Z,996.92
2016-12-18T11:41:07.416Z,996.89
2016-12-18T11:42:16.105Z,996.85
2016-12-18T11:43:24.788Z,996.84
2016-12-18T11:44:33.479Z,996.82
2016-12-18T11:45:42.193Z,996.83
2016-12-18T11:46:50.875Z,996.82
2016-12-18T11:47:59.560Z,996.77
2016-12-18T11:49:08.247Z,996.71
2016-12-18T11:50:16.958Z,996.63
2016-12-18T11:51:25.663Z,996.6
2016-12-18T11:52:34.354Z,996.53
2016-12-18T11:53:43.042Z,996.53
2016-12-18T11:54:51.740Z,996.57
2016-12-18T11:56:00.434Z,996.65
2016-12-18T11:57:09.119Z,996.6
2016-12-18T11:58:17.853Z,996.52
2016-12-18T11:59:26.546Z,996.58
2016-12-18T12:00:35.232Z,996.6
2016-12-18T12:01:43.926Z,996.58
2016-12-18T12:02:52.610Z,996.58
2016-12-18T12:04:01.296Z,996.54
2016-12-18T12:05:09.985Z,996.6
2016-12-18T12:06:18.676Z,996.54
2016-12-18T12:07:27.363Z,996.55
2016-12-18T12:08:36.054Z,996.5
2016-12-18T12:09:44.773Z,996.6
2016-12-18T12:10:53.462Z,996.6
2016-12-18T12:12:02.154Z,996.59
2016-12-18T12:13:11.157Z,996.54
2016-12-18T12:14:19.849Z,996.53
2016-12-18T12:15:28.544Z,996.45
2016-12-18T12:16:37.233Z,996.44
2016-12-18T12:17:45.928Z,996.38
2016-12-18T12:18:54.616Z,996.37
2016-12-18T12:20:03.307Z,996.31
2016-12-18T12:21:11.990Z,996.3
2016-12-18T12:22:20.681Z,996.35
2016-12-18T12:23:29.373Z,996.4
2016-12-18T12:24:38.061Z,996.41
2016-12-18T12:25:46.748Z,996.39
2016-12-18T12:26:55.434Z,996.39
2016-12-18T12:28:04.119Z,996.34
2016-12-18T12:29:12.817Z,996.3
2016-12-18T12:30:21.504Z,996.25
2016-12-18T12:31:30.196Z,996.22
2016-12-18T12:32:38.888Z,996.21
2016-12-18T12:33:47.582Z,996.21
2016-12-18T12:34:56.273Z,996.13
2016-12-18T12:36:04.962Z,996.11
2016-12-18T12:37:13.651Z,996.03
2016-12-18T12:38:22.345Z,996.04
2016-12-18T12:39:31.034Z,996.13
2016-12-18T12:40:39.719Z,996.16
2016-12-18T12:41:48.407Z,996.08
2016-12-18T12:42:57.119Z,996.07
2016-12-18T12:44:05.806Z,996.01
2016-12-18T12:45:14.524Z,996.02
2016-12-18T12:46:23.209Z,996.04
2016-12-18T12:47:31.898Z,996
2016-12-18T12:48:40.588Z,996
2016-12-18T12:49:49.276Z,996
2016-12-18T12:50:57.959Z,995.97
2016-12-18T12:52:06.651Z,995.95
2016-12-18T12:53:15.363Z,995.91
2016-12-18T12:54:24.061Z,995.96
2016-12-18T12:55:32.780Z,996
2016-12-18T12:56:41.501Z,995.99
2016-12-18T12:57:50.189Z,995.98
2016-12-18T12:58:58.883Z,996.01
2016-12-18T13:00:07.569Z,996.01
2016-12-18T13:01:16.260Z,995.99
2016-12-18T13:02:24.978Z,995.95
2016-12-18T13:03:33.662Z,995.93
2016-12-18T13:04:42.353Z,995.95
2016-12-18T13:05:51.038Z,995.92
2016-12-18T13:06:59.733Z,995.88
2016-12-18T13:08:08.424Z,995.88
2016-12-18T13:09:17.113Z,995.89
2016-12-18T13:10:25.812Z,995.91
2016-12-18T13:11:34.500Z,995.9
2016-12-18T13:12:43.503Z,995.89
2016-12-18T13:13:52.188Z,995.88
2016-12-18T13:15:00.875Z,995.83
2016-12-18T13:16:09.560Z,995.9
2016-12-18T13:17:18.246Z,995.91
2016-12-18T13:18:26.937Z,995.94
2016-12-18T13:19:35.624Z,995.9
2016-12-18T13:20:44.318Z,995.9
2016-12-18T13:21:53.035Z,995.88
2016-12-18T13:23:01.723Z,995.9
2016-12-18T13:24:10.415Z,995.91
2016-12-18T13:25:19.101Z,995.96
2016-12-18T13:26:27.786Z,995.94
2016-12-18T13:27:36.470Z,995.97
2016-12-18T13:28:45.158Z,995.94
2016-12-18T13:29:53.841Z,995.93
2016-12-18T13:31:02.526Z,995.97
2016-12-18T13:32:11.218Z,996.01
2016-12-18T13:33:19.905Z,996
2016-12-18T13:34:28.592Z,996.02
2016-12-18T13:35:37.283Z,995.99
2016-12-18T13:36:45.976Z,996.04
2016-12-18T13:37:54.667Z,996.09
2016-12-18T13:39:03.356Z,996.06
2016-12-18T13:40:12.043Z,996.06
2016-12-18T13:41:20.732Z,996.11
2016-12-18T13:42:29.448Z,996.05
2016-12-18T13:43:38.139Z,996.07
2016-12-18T13:44:46.824Z,996.07
2016-12-18T13:45:55.513Z,996.08
2016-12-18T13:47:04.202Z,996.07
2016-12-18T13:48:12.894Z,996.04
2016-12-18T13:49:21.583Z,996.03
2016-12-18T13:50:30.268Z,996.06
2016-12-18T13:51:38.957Z,996.11
2016-12-18T13:52:47.649Z,996.06
2016-12-18T13:53:56.349Z,995.98
2016-12-18T13:55:05.036Z,995.98
2016-12-18T13:56:13.720Z,995.93
2016-12-18T13:57:22.404Z,995.89
2016-12-18T13:58:31.097Z,995.83
2016-12-18T13:59:39.781Z,995.82
2016-12-18T14:00:48.468Z,995.84
2016-12-18T14:01:57.159Z,995.82
2016-12-18T14:03:05.846Z,995.79
2016-12-18T14:04:14.534Z,995.84
2016-12-18T14:05:23.227Z,995.83
2016-12-18T14:06:31.916Z,995.84
2016-12-18T14:07:40.612Z,995.81
2016-12-18T14:08:49.305Z,995.72
2016-12-18T14:09:57.991Z,995.63
2016-12-18T14:11:06.676Z,995.61
2016-12-18T14:12:15.677Z,995.57
2016-12-18T14:13:24.363Z,995.53
2016-12-18T14:14:33.056Z,995.48
2016-12-18T14:15:41.747Z,995.43
2016-12-18T14:16:50.434Z,995.39
2016-12-18T14:17:59.166Z,995.41
2016-12-18T14:19:07.852Z,995.41
2016-12-18T14:20:16.541Z,995.49